Time;durP1;ratioP1;P1;durP2;ratioP2;P2;SDS_P1;SDS_P2;PMS_P1;PMS_P2;Temp;Humidity;BMP_temperature;BMP_pressure;BME280_temperature;BME280_humidity;BME280_pressure;Samples;Min_cycle;Max_cycle;Signal;HPM_P1;HPM_P2
2023/10/09 00:01:04;;;;;;;17.10;6.27;;;;;;;;;;4995892;28;20424;-65
2023/10/09 00:03:30;;;;;;;14.80;5.90;;;;;;;;;;4988805;28;20434;-65
2023/10/09 00:05:56;;;;;;;19.60;7.00;;;;;;;;;;4976292;28;20437;-65
2023/10/09 00:08:30;;;;;;;20.40;6.50;;;;;;;;;;4976242;28;20421;-65
2023/10/09 00:10:57;;;;;;;19.97;6.90;;;;;;;;;;4976398;28;20961;-65
2023/10/09 00:13:30;;;;;;;10.33;5.53;;;;;;;;;;4976132;28;20439;-65
2023/10/09 00:16:01;;;;;;;24.50;6.33;;;;;;;;;;4975318;28;20411;-65
2023/10/09 00:18:33;;;;;;;18.00;6.47;;;;;;;;;;4975710;28;20427;-65
2023/10/09 00:21:12;;;;;;;11.23;5.53;;;;;;;;;;4975435;28;20411;-65
2023/10/09 00:23:42;;;;;;;18.60;6.47;;;;;;;;;;4976402;28;20434;-64
2023/10/09 00:26:16;;;;;;;10.93;5.40;;;;;;;;;;4976029;28;20424;-64
2023/10/09 00:28:47;;;;;;;16.33;6.07;;;;;;;;;;4975855;28;20465;-64
2023/10/09 00:31:16;;;;;;;19.93;6.20;;;;;;;;;;4976213;28;20455;-64
2023/10/09 00:33:45;;;;;;;19.00;5.30;;;;;;;;;;4975878;28;20415;-64
2023/10/09 00:36:17;;;;;;;12.40;5.73;;;;;;;;;;4976332;28;20419;-64
2023/10/09 00:38:49;;;;;;;13.70;5.37;;;;;;;;;;4976025;28;20427;-64
2023/10/09 00:41:24;;;;;;;11.43;5.17;;;;;;;;;;4975613;28;20785;-64
2023/10/09 00:43:51;;;;;;;15.10;4.90;;;;;;;;;;4975850;28;20796;-64
2023/10/09 00:48:47;;;;;;;18.57;5.47;;;;;;;;;;4976104;28;20422;-64
2023/10/09 00:51:17;;;;;;;10.47;4.93;;;;;;;;;;4975626;28;20469;-64
2023/10/09 00:53:45;;;;;;;5.80;3.97;;;;;;;;;;4974781;28;20505;-64
2023/10/09 00:59:08;;;;;;;16.90;6.53;;;;;;;;;;4975526;28;20800;-64
2023/10/09 01:01:35;;;;;;;15.30;5.60;;;;;;;;;;4975930;28;20505;-64
2023/10/09 01:04:11;;;;;;;15.67;4.80;;;;;;;;;;4975222;28;20450;-64
2023/10/09 01:06:44;;;;;;;10.80;4.90;;;;;;;;;;4975101;28;20422;-64
2023/10/09 01:09:16;;;;;;;22.90;5.67;;;;;;;;;;4975282;28;20779;-64
2023/10/09 01:11:49;;;;;;;13.07;5.10;;;;;;;;;;4975100;28;20470;-64
2023/10/09 01:14:21;;;;;;;14.30;5.30;;;;;;;;;;4973932;28;20971;-64
2023/10/09 01:16:47;;;;;;;22.17;6.07;;;;;;;;;;4975295;28;20414;-65
2023/10/09 01:19:19;;;;;;;27.90;5.77;;;;;;;;;;4975336;28;20462;-64
2023/10/09 01:21:45;;;;;;;21.53;6.10;;;;;;;;;;4974580;28;20811;-64
2023/10/09 01:24:11;;;;;;;21.43;5.47;;;;;;;;;;4974953;28;20411;-64
2023/10/09 01:26:44;;;;;;;23.07;5.90;;;;;;;;;;4975119;28;20913;-64
2023/10/09 01:29:17;;;;;;;13.40;5.30;;;;;;;;;;4975038;28;20411;-64
2023/10/09 01:31:51;;;;;;;21.67;5.90;;;;;;;;;;4974533;28;20589;-64
2023/10/09 01:34:19;;;;;;;17.83;5.50;;;;;;;;;;4975014;28;20476;-64
2023/10/09 01:36:48;;;;;;;19.87;5.53;;;;;;;;;;4973470;28;20426;-64
2023/10/09 01:39:25;;;;;;;19.83;6.00;;;;;;;;;;4973765;28;20430;-64
2023/10/09 01:41:58;;;;;;;10.23;4.73;;;;;;;;;;4974666;28;20942;-64
2023/10/09 01:44:30;;;;;;;13.53;5.30;;;;;;;;;;4974674;28;20429;-64
2023/10/09 01:46:58;;;;;;;17.07;5.17;;;;;;;;;;4974721;28;20440;-64
2023/10/09 01:49:31;;;;;;;16.90;5.40;;;;;;;;;;4974767;28;20417;-64
2023/10/09 01:52:01;;;;;;;15.87;5.73;;;;;;;;;;4974669;28;20454;-64
2023/10/09 01:54:36;;;;;;;13.90;6.40;;;;;;;;;;4974735;28;20401;-64
2023/10/09 01:57:05;;;;;;;15.17;6.20;;;;;;;;;;4974369;28;20455;-64
2023/10/09 01:59:32;;;;;;;11.20;5.10;;;;;;;;;;4973441;28;20423;-64
2023/10/09 02:02:12;;;;;;;13.27;5.10;;;;;;;;;;4974330;28;20496;-64
2023/10/09 02:04:40;;;;;;;13.90;5.40;;;;;;;;;;4974381;28;20532;-64
2023/10/09 02:07:09;;;;;;;16.83;5.93;;;;;;;;;;4973150;28;20430;-64
2023/10/09 02:09:44;;;;;;;16.23;5.37;;;;;;;;;;4974413;28;20442;-64
2023/10/09 02:12:10;;;;;;;18.93;4.80;;;;;;;;;;4974305;28;20840;-64
2023/10/09 02:14:41;;;;;;;16.47;5.40;;;;;;;;;;4974403;28;20498;-64
2023/10/09 02:17:17;;;;;;;11.83;5.13;;;;;;;;;;4974463;28;20570;-64
2023/10/09 02:19:48;;;;;;;20.77;5.00;;;;;;;;;;4974503;28;20827;-64
2023/10/09 02:22:14;;;;;;;14.10;5.73;;;;;;;;;;4973824;28;20441;-64
2023/10/09 02:24:51;;;;;;;18.80;6.10;;;;;;;;;;4974344;28;20501;-64
2023/10/09 02:27:40;;;;;;;11.50;5.33;;;;;;;;;;4973890;28;20473;-64
2023/10/09 02:30:17;;;;;;;17.50;5.47;;;;;;;;;;4973697;28;20983;-64
2023/10/09 02:32:44;;;;;;;19.10;5.80;;;;;;;;;;4974031;28;20450;-64
2023/10/09 02:38:00;;;;;;;17.37;5.13;;;;;;;;;;4974098;28;20429;-64
2023/10/09 02:40:40;;;;;;;14.33;5.50;;;;;;;;;;4973645;28;21019;-64
2023/10/09 02:43:06;;;;;;;18.27;5.80;;;;;;;;;;4973086;28;20406;-64
2023/10/09 02:45:35;;;;;;;16.67;4.93;;;;;;;;;;4973734;28;20414;-64
2023/10/09 02:48:10;;;;;;;10.30;5.37;;;;;;;;;;4973527;28;20417;-64
2023/10/09 02:50:38;;;;;;;11.90;5.20;;;;;;;;;;4973714;28;20489;-64
2023/10/09 02:53:09;;;;;;;20.60;4.80;;;;;;;;;;4973741;28;20430;-64
2023/10/09 02:55:38;;;;;;;12.70;5.27;;;;;;;;;;4974231;28;20406;-64
2023/10/09 02:58:14;;;;;;;21.70;5.53;;;;;;;;;;4973532;28;20922;-64
2023/10/09 03:00:44;;;;;;;11.83;4.70;;;;;;;;;;4973688;28;20908;-64
2023/10/09 03:03:10;;;;;;;18.73;5.47;;;;;;;;;;4973636;28;20491;-64
2023/10/09 03:05:44;;;;;;;19.67;5.70;;;;;;;;;;4972464;28;20876;-64
2023/10/09 03:08:12;;;;;;;15.77;5.30;;;;;;;;;;4973889;28;20526;-64
2023/10/09 03:10:40;;;;;;;17.43;5.50;;;;;;;;;;4973504;28;20410;-64
2023/10/09 03:13:06;;;;;;;21.63;5.80;;;;;;;;;;4973307;28;20462;-64
2023/10/09 03:15:35;;;;;;;21.30;6.00;;;;;;;;;;4973647;28;20411;-64
2023/10/09 03:18:04;;;;;;;12.70;5.50;;;;;;;;;;4973466;28;20415;-64
2023/10/09 03:20:30;;;;;;;12.03;5.83;;;;;;;;;;4973471;28;20481;-64
2023/10/09 03:22:57;;;;;;;17.80;6.20;;;;;;;;;;4972424;28;20425;-64
2023/10/09 03:25:26;;;;;;;18.17;5.60;;;;;;;;;;4973520;28;20469;-64
2023/10/09 03:27:56;;;;;;;20.13;5.20;;;;;;;;;;4973491;28;20434;-64
2023/10/09 03:30:25;;;;;;;22.50;6.00;;;;;;;;;;4973368;28;20442;-64
2023/10/09 03:32:54;;;;;;;17.20;5.80;;;;;;;;;;4973397;28;20984;-64
2023/10/09 03:35:27;;;;;;;12.83;4.90;;;;;;;;;;4973288;28;20461;-64
2023/10/09 03:38:00;;;;;;;10.97;5.20;;;;;;;;;;4972092;28;20525;-64
2023/10/09 03:40:31;;;;;;;18.17;5.60;;;;;;;;;;4972925;28;20560;-64
2023/10/09 03:42:57;;;;;;;18.20;5.53;;;;;;;;;;4972861;28;20483;-64
2023/10/09 03:45:31;;;;;;;15.40;5.47;;;;;;;;;;4973038;28;20457;-64
2023/10/09 03:48:02;;;;;;;15.10;5.60;;;;;;;;;;4973201;28;20909;-65
2023/10/09 03:50:35;;;;;;;13.37;5.33;;;;;;;;;;4973021;28;20787;-64
2023/10/09 03:53:02;;;;;;;13.10;5.30;;;;;;;;;;4973023;28;20462;-64
2023/10/09 03:55:28;;;;;;;14.70;5.33;;;;;;;;;;4976730;28;20481;-64
2023/10/09 03:57:58;;;;;;;17.20;5.07;;;;;;;;;;4976692;28;20754;-64
2023/10/09 04:00:27;;;;;;;11.40;4.90;;;;;;;;;;4976604;28;20426;-64
2023/10/09 04:02:54;;;;;;;12.03;4.20;;;;;;;;;;4976152;28;20524;-64
2023/10/09 04:05:20;;;;;;;11.57;5.50;;;;;;;;;;4976543;28;20898;-64
2023/10/09 04:07:48;;;;;;;9.90;5.07;;;;;;;;;;4976629;28;20486;-64
2023/10/09 04:13:02;;;;;;;15.10;5.57;;;;;;;;;;4976523;28;20438;-64
2023/10/09 04:15:30;;;;;;;20.10;5.70;;;;;;;;;;4976426;28;20434;-64
2023/10/09 04:17:56;;;;;;;15.30;6.03;;;;;;;;;;4976410;28;20426;-64
2023/10/09 04:22:59;;;;;;;16.30;5.90;;;;;;;;;;4976412;28;20944;-64
2023/10/09 04:25:25;;;;;;;15.67;5.43;;;;;;;;;;4976271;28;20429;-64
2023/10/09 04:28:09;;;;;;;12.43;5.23;;;;;;;;;;4976199;28;20796;-64
2023/10/09 04:30:55;;;;;;;14.13;5.57;;;;;;;;;;4976060;28;20819;-64
2023/10/09 04:38:55;;;;;;;12.80;5.20;;;;;;;;;;4976026;28;20986;-64
2023/10/09 04:41:27;;;;;;;13.73;6.10;;;;;;;;;;4976046;28;20414;-64
2023/10/09 04:44:04;;;;;;;47.57;29.40;;;;;;;;;;4976027;28;20418;-64
2023/10/09 04:46:43;;;;;;;11.80;5.73;;;;;;;;;;4975935;28;20524;-64
2023/10/09 04:49:26;;;;;;;14.70;5.30;;;;;;;;;;4975856;28;20438;-64
2023/10/09 04:52:07;;;;;;;13.77;5.60;;;;;;;;;;4975726;28;20489;-64
2023/10/09 04:54:39;;;;;;;37.13;21.03;;;;;;;;;;4975951;28;20407;-64
2023/10/09 04:57:17;;;;;;;43.60;29.03;;;;;;;;;;4975654;28;20509;-64
2023/10/09 04:59:47;;;;;;;20.55;7.32;;;;;;;;;;4973540;28;20410;-64
2023/10/09 05:02:19;;;;;;;20.70;5.93;;;;;;;;;;4974144;28;20260;-65
2023/10/09 05:04:47;;;;;;;12.47;5.60;;;;;;;;;;4974928;28;20457;-64
2023/10/09 05:07:50;;;;;;;18.13;5.70;;;;;;;;;;4975251;28;20430;-65
2023/10/09 05:10:16;;;;;;;13.77;5.03;;;;;;;;;;4975089;28;20423;-64
2023/10/09 05:12:56;;;;;;;10.67;4.83;;;;;;;;;;4975070;28;20552;-64
2023/10/09 05:15:29;;;;;;;15.80;4.70;;;;;;;;;;4975662;28;20481;-64
2023/10/09 05:18:09;;;;;;;13.53;4.47;;;;;;;;;;4975011;28;20429;-64
2023/10/09 05:20:58;;;;;;;15.60;5.80;;;;;;;;;;4974840;28;20402;-64
2023/10/09 05:23:25;;;;;;;19.13;5.77;;;;;;;;;;4974188;28;20446;-64
2023/10/09 05:25:55;;;;;;;9.03;4.63;;;;;;;;;;4974971;28;20411;-64
2023/10/09 05:28:25;;;;;;;18.63;6.50;;;;;;;;;;4974907;28;20473;-64
2023/10/09 05:31:02;;;;;;;19.23;9.00;;;;;;;;;;4973073;28;20498;-64
2023/10/09 05:33:28;;;;;;;20.00;6.07;;;;;;;;;;4975017;28;20565;-64
2023/10/09 05:38:46;;;;;;;14.67;5.60;;;;;;;;;;4974936;28;20429;-64
2023/10/09 05:47:22;;;;;;;23.93;5.77;;;;;;;;;;4974544;28;20522;-64
2023/10/09 05:49:45;;;;;;;16.90;5.80;;;;;;;;;;4974271;28;20455;-64
2023/10/09 05:52:32;;;;;;;24.37;6.00;;;;;;;;;;4973819;28;20504;-64
2023/10/09 06:06:18;;;;;;;16.47;5.53;;;;;;;;;;4974248;28;20414;-64
2023/10/09 06:16:41;;;;;;;24.37;6.30;;;;;;;;;;4973929;28;20407;-64
2023/10/09 06:19:31;;;;;;;14.60;5.50;;;;;;;;;;4973718;28;20426;-64
2023/10/09 06:24:54;;;;;;;21.90;5.67;;;;;;;;;;4974323;28;20966;-64
2023/10/09 06:32:50;;;;;;;17.03;5.37;;;;;;;;;;4973157;28;20523;-64
2023/10/09 06:35:18;;;;;;;12.23;5.00;;;;;;;;;;4973751;28;20435;-64
2023/10/09 06:45:57;;;;;;;21.43;6.00;;;;;;;;;;4973716;28;20824;-64
2023/10/09 06:59:04;;;;;;;14.23;5.80;;;;;;;;;;4973428;28;20549;-63
2023/10/09 07:01:42;;;;;;;16.23;6.30;;;;;;;;;;4972783;28;20424;-63
2023/10/09 07:04:18;;;;;;;12.23;5.77;;;;;;;;;;4972535;28;20869;-64
2023/10/09 07:17:15;;;;;;;20.00;5.50;;;;;;;;;;4973337;28;20401;-64
2023/10/09 07:24:53;;;;;;;12.03;5.53;;;;;;;;;;4973319;28;20505;-63
2023/10/09 07:27:46;;;;;;;11.07;5.57;;;;;;;;;;4973767;28;20465;-63
2023/10/09 07:33:05;;;;;;;13.83;5.93;;;;;;;;;;4977443;28;20473;-63
2023/10/09 07:36:14;;;;;;;20.83;5.87;;;;;;;;;;4977115;28;20473;-63
2023/10/09 07:38:22;;;;;;;28.37;6.57;;;;;;;;;;4974090;28;20435;-63
2023/10/09 07:43:26;;;;;;;17.33;5.60;;;;;;;;;;4977272;28;20424;-63
2023/10/09 07:48:26;;;;;;;15.93;5.90;;;;;;;;;;4976792;28;20417;-63
2023/10/09 07:50:57;;;;;;;16.57;5.80;;;;;;;;;;4976653;28;20507;-64
2023/10/09 07:53:26;;;;;;;15.57;6.80;;;;;;;;;;4976953;28;20524;-64
2023/10/09 07:55:56;;;;;;;16.77;5.77;;;;;;;;;;4976661;28;20414;-64
2023/10/09 07:58:25;;;;;;;15.73;6.00;;;;;;;;;;4976646;28;20916;-63
2023/10/09 08:01:07;;;;;;;23.67;6.10;;;;;;;;;;4977162;28;20455;-63
2023/10/09 08:03:35;;;;;;;19.63;6.17;;;;;;;;;;4976380;28;20928;-64
2023/10/09 08:17:11;;;;;;;18.60;6.10;;;;;;;;;;4976321;28;20425;-63
2023/10/09 08:19:53;;;;;;;17.30;6.30;;;;;;;;;;4976191;28;20437;-64
2023/10/09 08:22:43;;;;;;;18.57;5.37;;;;;;;;;;4975153;28;20464;-64
2023/10/09 08:25:26;;;;;;;19.93;5.70;;;;;;;;;;4976308;28;20468;-64
2023/10/09 08:27:55;;;;;;;15.30;6.00;;;;;;;;;;4976273;28;20506;-64
2023/10/09 08:33:00;;;;;;;13.07;5.20;;;;;;;;;;4976043;28;20512;-64
2023/10/09 08:35:47;;;;;;;15.90;5.30;;;;;;;;;;4975865;28;20506;-64
2023/10/09 08:38:13;;;;;;;19.10;4.60;;;;;;;;;;4974588;28;20435;-64
2023/10/09 08:40:42;;;;;;;39.40;6.10;;;;;;;;;;4974522;28;20450;-64
2023/10/09 08:43:16;;;;;;;15.33;5.40;;;;;;;;;;4975746;28;20426;-64
2023/10/09 08:45:45;;;;;;;19.30;5.97;;;;;;;;;;4975707;28;20452;-64
2023/10/09 08:48:15;;;;;;;34.83;5.30;;;;;;;;;;4975774;28;20912;-63
2023/10/09 08:50:42;;;;;;;21.90;5.30;;;;;;;;;;4975489;28;20450;-64
2023/10/09 08:53:10;;;;;;;37.67;6.50;;;;;;;;;;4975668;28;20802;-64
2023/10/09 08:55:38;;;;;;;25.53;6.10;;;;;;;;;;4975439;28;20476;-64
2023/10/09 08:58:18;;;;;;;19.40;5.23;;;;;;;;;;4975451;28;20926;-64
2023/10/09 09:00:45;;;;;;;28.00;5.20;;;;;;;;;;4975527;28;20445;-64
2023/10/09 09:03:12;;;;;;;11.63;4.80;;;;;;;;;;4975457;28;20541;-64
2023/10/09 09:05:40;;;;;;;24.93;6.20;;;;;;;;;;4975597;28;20756;-64
2023/10/09 09:08:23;;;;;;;24.30;6.40;;;;;;;;;;4973831;28;20429;-64
2023/10/09 09:10:52;;;;;;;26.23;5.90;;;;;;;;;;4975031;28;20471;-64
2023/10/09 09:13:23;;;;;;;26.93;5.97;;;;;;;;;;4973939;28;20411;-64
2023/10/09 09:15:53;;;;;;;16.97;5.80;;;;;;;;;;4974670;28;20438;-64
2023/10/09 09:18:19;;;;;;;20.97;6.83;;;;;;;;;;4974879;28;20414;-64
2023/10/09 09:20:53;;;;;;;24.17;5.70;;;;;;;;;;4974838;28;20520;-64
2023/10/09 09:23:23;;;;;;;33.53;6.07;;;;;;;;;;4975218;28;20420;-64
2023/10/09 09:25:58;;;;;;;27.20;5.83;;;;;;;;;;4973781;28;20412;-64
2023/10/09 09:28:26;;;;;;;17.23;5.53;;;;;;;;;;4975000;28;20453;-64
2023/10/09 09:30:53;;;;;;;15.23;4.97;;;;;;;;;;4975063;28;20411;-64
2023/10/09 09:33:30;;;;;;;19.93;6.07;;;;;;;;;;4973525;28;20418;-64
2023/10/09 09:36:06;;;;;;;27.93;6.17;;;;;;;;;;4974711;28;20465;-64
2023/10/09 09:38:42;;;;;;;19.63;5.83;;;;;;;;;;4974963;28;20472;-64
2023/10/09 09:41:08;;;;;;;15.03;5.27;;;;;;;;;;4974650;28;20415;-64
2023/10/09 09:43:40;;;;;;;13.20;5.00;;;;;;;;;;4978808;28;20414;-65
2023/10/09 09:46:10;;;;;;;16.80;4.20;;;;;;;;;;4974807;28;20442;-64
2023/10/09 09:48:44;;;;;;;13.27;4.57;;;;;;;;;;4973106;28;20422;-64
2023/10/09 09:51:13;;;;;;;15.80;4.87;;;;;;;;;;4974268;28;20466;-64
2023/10/09 09:53:40;;;;;;;17.63;5.63;;;;;;;;;;4973832;28;20512;-65
2023/10/09 09:56:06;;;;;;;28.93;12.20;;;;;;;;;;4974369;28;20462;-65
2023/10/09 09:58:42;;;;;;;21.20;6.53;;;;;;;;;;4974211;28;20410;-65
2023/10/09 10:01:24;;;;;;;24.60;5.70;;;;;;;;;;4974002;28;20913;-64
2023/10/09 10:03:51;;;;;;;20.37;5.50;;;;;;;;;;4974083;28;20446;-65
2023/10/09 10:06:21;;;;;;;17.00;5.00;;;;;;;;;;4974753;28;20468;-64
2023/10/09 10:08:51;;;;;;;19.33;4.90;;;;;;;;;;4956707;28;20522;-64
2023/10/09 10:11:40;;;;;;;14.30;4.10;;;;;;;;;;4974013;28;20515;-64
2023/10/09 10:14:08;;;;;;;20.40;5.10;;;;;;;;;;4974214;28;20421;-64
2023/10/09 10:16:56;;;;;;;12.10;4.73;;;;;;;;;;4973937;28;20426;-64
2023/10/09 10:19:22;;;;;;;23.33;4.90;;;;;;;;;;4973841;28;20526;-64
2023/10/09 10:21:49;;;;;;;22.37;4.70;;;;;;;;;;4974102;28;20441;-64
2023/10/09 10:24:30;;;;;;;12.50;4.30;;;;;;;;;;4974457;28;20866;-65
2023/10/09 10:28:09;;;;;;;13.40;4.60;;;;;;;;;;4974923;28;20451;-65
2023/10/09 10:30:31;;;;;;;19.30;5.17;;;;;;;;;;4970010;28;20424;-64
2023/10/09 10:32:58;;;;;;;20.33;4.97;;;;;;;;;;4973934;28;20448;-64
2023/10/09 10:38:34;;;;;;;23.30;5.40;;;;;;;;;;4974191;28;20466;-65
2023/10/09 10:41:16;;;;;;;28.37;5.47;;;;;;;;;;4973805;28;20418;-64
2023/10/09 10:46:15;;;;;;;15.00;4.67;;;;;;;;;;4974228;28;20430;-64
2023/10/09 10:48:47;;;;;;;18.63;4.50;;;;;;;;;;4973821;28;20840;-63
2023/10/09 10:51:15;;;;;;;22.17;4.90;;;;;;;;;;4973208;28;20830;-64
2023/10/09 10:54:26;;;;;;;21.70;5.03;;;;;;;;;;4974000;28;20449;-64
2023/10/09 10:56:45;;;;;;;18.30;4.47;;;;;;;;;;4973635;28;20452;-64
2023/10/09 11:04:38;;;;;;;15.10;4.43;;;;;;;;;;4975876;28;20521;-64
2023/10/09 11:12:44;;;;;;;16.17;4.77;;;;;;;;;;4977345;28;20919;-64
2023/10/09 11:18:07;;;;;;;19.43;4.53;;;;;;;;;;4977395;28;20796;-64
2023/10/09 11:20:38;;;;;;;14.87;4.40;;;;;;;;;;4977345;28;20423;-64
2023/10/09 11:25:50;;;;;;;10.80;4.93;;;;;;;;;;4977836;28;20399;-64
2023/10/09 11:31:11;;;;;;;23.00;4.47;;;;;;;;;;4977135;28;20394;-64
2023/10/09 11:33:51;;;;;;;18.90;5.23;;;;;;;;;;4975678;28;20446;-64
2023/10/09 11:36:32;;;;;;;13.73;4.50;;;;;;;;;;4976731;28;20553;-64
2023/10/09 11:39:13;;;;;;;27.37;5.30;;;;;;;;;;4976992;28;20419;-64
2023/10/09 11:41:42;;;;;;;12.63;4.27;;;;;;;;;;4976028;28;20418;-64
2023/10/09 11:44:24;;;;;;;15.50;4.63;;;;;;;;;;4976454;28;20502;-64
2023/10/09 11:47:14;;;;;;;12.37;5.13;;;;;;;;;;4976905;28;20982;-64
2023/10/09 11:50:11;;;;;;;21.67;5.40;;;;;;;;;;4976670;28;20438;-64
2023/10/09 11:52:56;;;;;;;35.27;8.73;;;;;;;;;;4976983;28;20472;-64
2023/10/09 11:55:25;;;;;;;25.77;6.67;;;;;;;;;;4976416;28;20414;-64
2023/10/09 11:57:55;;;;;;;11.57;4.80;;;;;;;;;;4976552;28;20947;-64
2023/10/09 12:00:29;;;;;;;25.53;5.43;;;;;;;;;;4976279;28;20414;-64
2023/10/09 12:03:04;;;;;;;17.50;4.97;;;;;;;;;;4976626;28;20438;-64
2023/10/09 12:05:31;;;;;;;24.23;4.63;;;;;;;;;;4976426;28;20460;-64
2023/10/09 12:07:59;;;;;;;16.70;4.50;;;;;;;;;;4976275;28;20961;-64
2023/10/09 12:10:25;;;;;;;19.17;4.27;;;;;;;;;;4975730;28;20944;-64
2023/10/09 12:12:57;;;;;;;13.23;4.40;;;;;;;;;;4976112;28;20469;-64
2023/10/09 12:15:24;;;;;;;23.03;5.20;;;;;;;;;;4976357;28;20506;-64
2023/10/09 12:17:53;;;;;;;11.10;4.20;;;;;;;;;;4975212;28;20439;-64
2023/10/09 12:20:32;;;;;;;16.63;6.73;;;;;;;;;;4975987;28;20422;-64
2023/10/09 12:23:04;;;;;;;18.33;6.67;;;;;;;;;;4976345;28;20533;-64
2023/10/09 12:25:31;;;;;;;18.03;5.10;;;;;;;;;;4976147;28;20426;-64
2023/10/09 12:28:01;;;;;;;22.37;5.37;;;;;;;;;;4974753;28;20463;-64
2023/10/09 12:30:28;;;;;;;12.00;5.53;;;;;;;;;;4974600;28;20451;-65
2023/10/09 12:32:55;;;;;;;25.53;4.90;;;;;;;;;;4974739;28;20996;-64
2023/10/09 12:35:23;;;;;;;19.70;5.20;;;;;;;;;;4975991;28;20411;-65
2023/10/09 12:37:51;;;;;;;17.77;4.70;;;;;;;;;;4975729;28;20524;-65
2023/10/09 12:40:24;;;;;;;15.77;5.10;;;;;;;;;;4976032;28;20431;-65
2023/10/09 12:42:50;;;;;;;12.60;4.20;;;;;;;;;;4975634;28;20450;-64
2023/10/09 12:45:17;;;;;;;21.90;4.70;;;;;;;;;;4975814;28;20980;-65
2023/10/09 12:47:44;;;;;;;22.20;4.67;;;;;;;;;;4975938;28;20489;-65
2023/10/09 12:50:13;;;;;;;12.17;4.33;;;;;;;;;;4975524;28;20419;-64
2023/10/09 12:52:39;;;;;;;21.90;5.53;;;;;;;;;;4975553;28;20532;-64
2023/10/09 12:55:07;;;;;;;15.13;4.23;;;;;;;;;;4975734;28;20452;-64
2023/10/09 12:57:36;;;;;;;23.93;3.97;;;;;;;;;;4975503;28;20411;-64
2023/10/09 13:00:10;;;;;;;10.40;4.13;;;;;;;;;;4975604;28;20497;-64
2023/10/09 13:02:36;;;;;;;14.80;4.97;;;;;;;;;;4975326;28;20509;-64
2023/10/09 13:05:05;;;;;;;26.87;6.30;;;;;;;;;;4975091;28;20449;-64
2023/10/09 13:07:31;;;;;;;18.43;4.93;;;;;;;;;;4975190;28;20419;-65
2023/10/09 13:10:09;;;;;;;15.50;4.53;;;;;;;;;;4975350;28;20894;-65
2023/10/09 13:12:41;;;;;;;17.27;4.50;;;;;;;;;;4975080;28;20473;-64
2023/10/09 13:15:13;;;;;;;12.23;4.27;;;;;;;;;;4975241;28;20415;-65
2023/10/09 13:17:39;;;;;;;22.90;5.10;;;;;;;;;;4975351;28;20937;-65
2023/10/09 13:20:15;;;;;;;14.37;4.30;;;;;;;;;;4975327;28;20414;-64
2023/10/09 13:22:47;;;;;;;15.50;4.50;;;;;;;;;;4974648;28;20466;-64
2023/10/09 13:25:16;;;;;;;32.17;5.30;;;;;;;;;;4974873;28;20427;-64
2023/10/09 13:27:49;;;;;;;14.10;4.60;;;;;;;;;;4974587;28;20921;-64
2023/10/09 13:30:21;;;;;;;13.10;4.67;;;;;;;;;;4973748;28;20443;-64
2023/10/09 13:32:49;;;;;;;17.73;5.13;;;;;;;;;;4975094;28;20846;-64
2023/10/09 13:35:17;;;;;;;19.10;4.70;;;;;;;;;;4974815;28;20924;-64
2023/10/09 13:37:44;;;;;;;13.23;4.33;;;;;;;;;;4974827;28;20444;-64
2023/10/09 13:40:11;;;;;;;9.23;4.20;;;;;;;;;;4974774;28;20426;-64
2023/10/09 13:42:38;;;;;;;15.03;4.73;;;;;;;;;;4974915;28;20418;-65
2023/10/09 13:45:15;;;;;;;23.53;4.60;;;;;;;;;;4975026;28;20493;-64
2023/10/09 13:47:44;;;;;;;15.40;4.50;;;;;;;;;;4973615;28;20847;-64
2023/10/09 13:50:10;;;;;;;25.43;9.27;;;;;;;;;;4975359;28;20399;-69
2023/10/09 13:52:39;;;;;;;14.63;4.63;;;;;;;;;;4974682;28;20494;-64
2023/10/09 13:55:15;;;;;;;21.40;4.40;;;;;;;;;;4974606;28;20913;-64
2023/10/09 13:57:43;;;;;;;16.60;5.30;;;;;;;;;;4974527;28;20414;-64
2023/10/09 14:00:13;;;;;;;16.93;4.90;;;;;;;;;;4974529;28;20415;-64
2023/10/09 14:02:42;;;;;;;23.17;5.00;;;;;;;;;;4974589;28;20431;-64
2023/10/09 14:05:08;;;;;;;17.43;4.67;;;;;;;;;;4974450;28;20899;-64
2023/10/09 14:07:34;;;;;;;28.07;5.43;;;;;;;;;;4974336;28;20466;-64
2023/10/09 14:10:07;;;;;;;18.53;5.37;;;;;;;;;;4974330;28;20437;-64
2023/10/09 14:12:34;;;;;;;17.33;3.80;;;;;;;;;;4972910;28;20475;-64
2023/10/09 14:15:03;;;;;;;14.50;3.80;;;;;;;;;;4973092;28;20451;-64
2023/10/09 14:17:31;;;;;;;28.87;4.70;;;;;;;;;;4974116;28;20449;-64
2023/10/09 14:20:25;;;;;;;20.30;4.83;;;;;;;;;;4974062;28;20940;-64
2023/10/09 14:22:46;;;;;;;15.50;4.80;;;;;;;;;;4974192;28;20426;-64
2023/10/09 14:25:15;;;;;;;18.30;4.83;;;;;;;;;;4973961;28;20425;-64
2023/10/09 14:27:48;;;;;;;24.13;4.63;;;;;;;;;;4973969;28;20446;-64
2023/10/09 14:30:22;;;;;;;16.73;4.33;;;;;;;;;;4974067;28;20387;-64
2023/10/09 14:32:51;;;;;;;23.20;4.80;;;;;;;;;;4973663;28;20473;-64
2023/10/09 14:35:21;;;;;;;22.57;4.63;;;;;;;;;;4974046;28;20410;-64
2023/10/09 14:37:47;;;;;;;11.03;4.10;;;;;;;;;;4973388;28;20423;-64
2023/10/09 14:40:13;;;;;;;13.87;4.47;;;;;;;;;;4973882;28;20785;-64
2023/10/09 14:42:44;;;;;;;19.40;4.23;;;;;;;;;;4973935;28;20421;-64
2023/10/09 14:45:15;;;;;;;9.40;4.30;;;;;;;;;;4974087;28;20425;-64
2023/10/09 14:47:41;;;;;;;14.33;4.40;;;;;;;;;;4974421;28;20407;-65
2023/10/09 14:50:09;;;;;;;15.30;5.27;;;;;;;;;;4973325;28;20411;-63
2023/10/09 14:52:38;;;;;;;14.00;4.50;;;;;;;;;;4973710;28;20476;-64
2023/10/09 14:55:05;;;;;;;10.33;4.93;;;;;;;;;;4973571;28;20430;-64
2023/10/09 14:57:34;;;;;;;15.93;4.47;;;;;;;;;;4973696;28;20422;-64
2023/10/09 15:00:01;;;;;;;12.93;4.57;;;;;;;;;;4973678;28;20439;-65
2023/10/09 15:02:32;;;;;;;11.73;4.53;;;;;;;;;;4973313;28;20492;-64
2023/10/09 15:05:03;;;;;;;25.47;4.47;;;;;;;;;;4973202;28;20447;-65
2023/10/09 15:07:29;;;;;;;14.90;5.23;;;;;;;;;;4973616;28;20426;-64
2023/10/09 15:10:03;;;;;;;62.67;39.23;;;;;;;;;;4973397;28;20453;-69
2023/10/09 15:12:29;;;;;;;42.13;18.77;;;;;;;;;;4974155;28;20451;-69
2023/10/09 15:14:57;;;;;;;23.70;12.10;;;;;;;;;;4973471;28;20438;-65
2023/10/09 15:17:24;;;;;;;45.97;25.10;;;;;;;;;;4973559;28;20406;-68
2023/10/09 15:19:56;;;;;;;32.93;8.60;;;;;;;;;;4973120;28;20442;-67
2023/10/09 15:22:22;;;;;;;19.90;5.50;;;;;;;;;;4973405;28;20398;-67
2023/10/09 15:24:48;;;;;;;16.43;5.03;;;;;;;;;;4973460;28;20446;-70
2023/10/09 15:27:15;;;;;;;18.60;5.40;;;;;;;;;;4973200;28;20450;-69
2023/10/09 15:29:44;;;;;;;22.17;5.40;;;;;;;;;;4973255;28;20468;-69
2023/10/09 15:32:22;;;;;;;15.30;5.30;;;;;;;;;;4973392;28;20895;-69
2023/10/09 15:34:50;;;;;;;19.20;4.90;;;;;;;;;;4973413;28;20441;-69
2023/10/09 15:37:17;;;;;;;14.63;4.50;;;;;;;;;;4973118;28;20489;-69
2023/10/09 15:39:43;;;;;;;15.60;5.90;;;;;;;;;;4973269;28;20484;-69
2023/10/09 15:42:13;;;;;;;21.00;4.63;;;;;;;;;;4973288;28;20415;-69
2023/10/09 15:44:41;;;;;;;12.33;4.60;;;;;;;;;;4973608;28;20963;-69
2023/10/09 15:47:12;;;;;;;23.50;6.33;;;;;;;;;;4973316;28;20458;-69
2023/10/09 15:49:41;;;;;;;15.10;6.90;;;;;;;;;;4974488;28;20423;-69
2023/10/09 15:52:08;;;;;;;21.53;5.40;;;;;;;;;;4976793;28;21028;-69
2023/10/09 15:54:34;;;;;;;15.70;5.13;;;;;;;;;;4976631;28;20456;-69
2023/10/09 15:57:00;;;;;;;11.90;4.20;;;;;;;;;;4976518;28;20440;-69
2023/10/09 15:59:32;;;;;;;18.73;4.97;;;;;;;;;;4976719;28;20411;-69
2023/10/09 16:01:59;;;;;;;24.60;6.00;;;;;;;;;;4976295;28;20442;-69
2023/10/09 16:04:25;;;;;;;20.67;5.83;;;;;;;;;;4976602;28;20503;-69
2023/10/09 16:06:55;;;;;;;19.43;8.17;;;;;;;;;;4976634;28;20488;-69
2023/10/09 16:09:21;;;;;;;19.17;7.47;;;;;;;;;;4976241;28;20453;-69
2023/10/09 16:11:53;;;;;;;15.37;7.33;;;;;;;;;;4976174;28;20479;-69
2023/10/09 16:14:19;;;;;;;16.13;9.63;;;;;;;;;;4976410;28;20776;-69
2023/10/09 16:16:49;;;;;;;31.73;11.20;;;;;;;;;;4976112;28;20422;-69
2023/10/09 16:19:15;;;;;;;30.90;8.67;;;;;;;;;;4975617;28;20514;-69
2023/10/09 16:21:42;;;;;;;25.10;6.40;;;;;;;;;;4976269;28;20498;-69
2023/10/09 16:24:12;;;;;;;21.90;6.40;;;;;;;;;;4975821;28;20891;-69
2023/10/09 16:26:44;;;;;;;15.93;6.30;;;;;;;;;;4976308;28;20433;-69
2023/10/09 16:29:11;;;;;;;13.30;5.60;;;;;;;;;;4976001;28;20914;-69
2023/10/09 16:31:37;;;;;;;20.13;6.87;;;;;;;;;;4975832;28;20498;-68
2023/10/09 16:34:04;;;;;;;38.83;13.20;;;;;;;;;;4975893;28;20420;-67
2023/10/09 16:36:30;;;;;;;17.70;5.43;;;;;;;;;;4975861;28;20509;-67
2023/10/09 16:38:58;;;;;;;14.53;6.17;;;;;;;;;;4976078;28;20446;-66
2023/10/09 16:41:25;;;;;;;17.30;5.90;;;;;;;;;;4975716;28;20497;-66
2023/10/09 16:43:52;;;;;;;28.83;6.00;;;;;;;;;;4975352;28;20415;-66
2023/10/09 16:46:21;;;;;;;12.40;6.10;;;;;;;;;;4975257;28;20489;-67
2023/10/09 16:48:51;;;;;;;21.67;6.27;;;;;;;;;;4975673;28;20512;-66
2023/10/09 16:51:21;;;;;;;13.43;5.97;;;;;;;;;;4975344;28;20419;-66
2023/10/09 16:53:51;;;;;;;25.40;6.43;;;;;;;;;;4975243;28;20417;-66
2023/10/09 16:56:22;;;;;;;8.80;5.77;;;;;;;;;;4975508;28;20433;-67
2023/10/09 16:58:52;;;;;;;18.97;5.20;;;;;;;;;;4975013;28;20434;-67
2023/10/09 17:01:21;;;;;;;23.03;5.93;;;;;;;;;;4974711;28;20475;-66
2023/10/09 17:03:54;;;;;;;13.83;5.20;;;;;;;;;;4975509;28;20444;-66
2023/10/09 17:06:21;;;;;;;14.77;6.60;;;;;;;;;;4975594;28;20463;-67
2023/10/09 17:08:47;;;;;;;21.13;5.60;;;;;;;;;;4975328;28;20418;-66
2023/10/09 17:11:13;;;;;;;18.40;5.17;;;;;;;;;;4975525;28;20919;-66